Time;durP1;ratioP1;P1;durP2;ratioP2;P2;SDS_P1;SDS_P2;PMS_P1;PMS_P2;Temp;Humidity;BMP_temperature;BMP_pressure;BME280_temperature;BME280_humidity;BME280_pressure;Samples;Min_cycle;Max_cycle;Signal;HPM_P1;HPM_P2
2022/06/17 00:01:13;;;;;;;10.15;6.60;;;12.90;99.90;;;;;;4930538;29;20782;-76
2022/06/17 00:03:39;;;;;;;9.32;6.68;;;12.90;99.90;;;;;;4938759;29;20047;-76
2022/06/17 00:06:09;;;;;;;8.68;6.28;;;12.80;99.90;;;;;;4926027;29;20501;-76
2022/06/17 00:08:39;;;;;;;9.93;6.93;;;12.80;99.90;;;;;;4944536;29;20047;-76
2022/06/17 00:11:12;;;;;;;12.82;6.93;;;12.80;99.90;;;;;;4947858;28;20053;-76
2022/06/17 00:13:38;;;;;;;11.52;7.78;;;12.80;99.90;;;;;;4923204;29;20062;-76
2022/06/17 00:16:09;;;;;;;8.82;6.88;;;12.80;99.90;;;;;;4944016;28;20039;-76
2022/06/17 00:18:36;;;;;;;11.27;7.30;;;12.70;99.90;;;;;;4924388;29;20079;-76
2022/06/17 00:21:03;;;;;;;10.07;7.30;;;12.80;99.90;;;;;;4943922;29;20082;-76
2022/06/17 00:23:28;;;;;;;11.40;7.63;;;12.80;99.90;;;;;;4926164;29;20426;-77
2022/06/17 00:25:54;;;;;;;10.88;6.80;;;12.70;99.90;;;;;;4926536;29;20564;-77
2022/06/17 00:28:23;;;;;;;11.63;7.10;;;12.80;99.90;;;;;;4908063;29;20051;-77
2022/06/17 00:30:50;;;;;;;11.57;8.45;;;12.80;99.90;;;;;;4943027;28;20043;-76
2022/06/17 00:33:17;;;;;;;14.07;9.27;;;12.70;99.90;;;;;;4932555;29;20051;-76
2022/06/17 00:35:52;;;;;;;13.98;9.10;;;12.80;99.90;;;;;;4937596;29;20079;-76
2022/06/17 00:38:24;;;;;;;13.23;8.57;;;12.80;99.90;;;;;;4944330;29;20046;-76
2022/06/17 00:40:51;;;;;;;14.40;8.88;;;12.80;99.90;;;;;;4926031;29;20477;-75
2022/06/17 00:43:27;;;;;;;11.52;7.95;;;12.80;99.90;;;;;;4941123;29;20082;-76
2022/06/17 00:46:07;;;;;;;12.70;8.68;;;12.80;99.90;;;;;;4932196;29;20496;-76
2022/06/17 00:48:42;;;;;;;13.90;9.07;;;12.90;99.90;;;;;;4944533;29;20517;-75
2022/06/17 00:51:18;;;;;;;11.60;8.43;;;12.90;99.90;;;;;;4941620;29;20043;-76
2022/06/17 00:53:56;;;;;;;15.15;8.35;;;12.90;99.90;;;;;;4930868;29;20105;-77
2022/06/17 00:56:32;;;;;;;11.40;7.85;;;13.00;99.90;;;;;;4930857;29;20379;-76
2022/06/17 00:58:57;;;;;;;12.50;8.40;;;13.00;99.90;;;;;;4932147;29;20113;-76
2022/06/17 01:01:24;;;;;;;11.95;7.78;;;13.00;99.90;;;;;;4923642;29;20051;-76
2022/06/17 01:03:53;;;;;;;11.95;7.50;;;13.10;99.90;;;;;;4921527;29;20047;-77
2022/06/17 01:06:23;;;;;;;13.27;8.85;;;13.10;99.90;;;;;;4940909;29;20039;-77
2022/06/17 01:11:44;;;;;;;13.75;9.02;;;13.10;99.90;;;;;;4943004;28;20051;-77
2022/06/17 01:14:14;;;;;;;13.60;8.88;;;13.20;99.90;;;;;;4945802;28;20046;-76
2022/06/17 01:16:41;;;;;;;12.73;8.00;;;13.20;99.90;;;;;;4925436;29;20504;-75
2022/06/17 01:19:31;;;;;;;14.40;8.55;;;13.20;99.90;;;;;;4937008;29;20043;-76
2022/06/17 01:22:01;;;;;;;13.43;8.52;;;13.30;99.90;;;;;;4930411;29;20039;-76
2022/06/17 01:24:27;;;;;;;12.07;7.70;;;13.30;99.90;;;;;;4927736;29;20083;-77
2022/06/17 01:26:53;;;;;;;12.45;7.90;;;13.30;99.90;;;;;;4935105;28;20060;-76
2022/06/17 01:29:18;;;;;;;13.80;8.45;;;13.30;99.90;;;;;;4906874;29;20047;-76
2022/06/17 01:31:54;;;;;;;14.18;8.35;;;13.30;99.90;;;;;;4938841;28;20413;-75
2022/06/17 01:34:21;;;;;;;12.57;8.57;;;13.20;99.90;;;;;;4930315;29;20039;-74
2022/06/17 01:36:49;;;;;;;15.95;8.88;;;13.30;99.90;;;;;;4920423;29;20051;-75
2022/06/17 01:39:16;;;;;;;13.10;8.82;;;13.30;99.90;;;;;;4928773;29;20055;-76
2022/06/17 01:41:43;;;;;;;12.80;8.07;;;13.30;99.90;;;;;;4946744;28;20051;-74
2022/06/17 01:44:17;;;;;;;13.93;8.98;;;13.30;99.90;;;;;;4944372;28;20432;-76
2022/06/17 01:46:45;;;;;;;12.65;8.00;;;13.20;99.90;;;;;;4928914;29;20055;-76
2022/06/17 01:49:19;;;;;;;12.20;7.72;;;13.30;99.90;;;;;;4928856;29;20101;-77
2022/06/17 01:51:55;;;;;;;16.73;7.93;;;13.30;99.90;;;;;;4943696;29;20471;-76
2022/06/17 01:54:27;;;;;;;11.35;7.20;;;13.30;99.90;;;;;;4923719;29;20107;-76
2022/06/17 01:56:56;;;;;;;12.93;7.53;;;13.30;99.90;;;;;;4923792;29;20461;-76
2022/06/17 01:59:54;;;;;;;10.90;7.15;;;13.20;99.90;;;;;;4926321;29;20050;-79
2022/06/17 02:02:23;;;;;;;12.95;7.05;;;13.20;99.90;;;;;;4934842;28;20056;-79
2022/06/17 02:04:54;;;;;;;12.93;7.20;;;13.20;99.90;;;;;;4946436;29;20035;-78
2022/06/17 02:07:23;;;;;;;;;;;13.10;99.90;;;;;;4938373;28;20036;-79
2022/06/17 02:09:49;;;;;;;13.40;7.53;;;13.20;99.90;;;;;;4913827;29;20494;-78
2022/06/17 02:12:17;;;;;;;13.38;7.63;;;13.20;99.90;;;;;;4943990;28;20039;-80
2022/06/17 02:14:44;;;;;;;12.25;6.45;;;13.20;99.90;;;;;;4945820;29;20058;-77
2022/06/17 02:17:10;;;;;;;9.48;6.45;;;13.30;99.90;;;;;;4930116;29;20054;-78
2022/06/17 02:19:39;;;;;;;11.25;7.18;;;13.30;99.90;;;;;;4927393;28;20044;-74
2022/06/17 02:22:09;;;;;;;10.85;6.28;;;13.20;99.90;;;;;;4931303;29;20047;-78
2022/06/17 02:24:36;;;;;;;9.80;6.32;;;13.20;99.90;;;;;;4929786;29;20043;-77
2022/06/17 02:27:06;;;;;;;13.23;7.07;;;13.20;99.90;;;;;;4943945;29;20044;-78
2022/06/17 02:29:34;;;;;;;11.85;6.65;;;13.20;99.90;;;;;;4925158;29;20517;-77
2022/06/17 02:32:02;;;;;;;9.95;6.20;;;13.20;99.90;;;;;;4951096;28;20047;-77
2022/06/17 02:34:29;;;;;;;15.25;7.55;;;13.20;99.90;;;;;;4953703;28;20027;-77
2022/06/17 02:37:05;;;;;;;10.88;6.63;;;13.20;99.90;;;;;;4943599;29;20051;-76
2022/06/17 02:39:31;;;;;;;10.13;6.18;;;13.20;99.90;;;;;;4924730;29;20126;-78
2022/06/17 02:41:57;;;;;;;10.80;5.90;;;13.20;99.90;;;;;;4972903;28;20035;-78
2022/06/17 02:44:38;;;;;;;8.48;5.78;;;13.20;99.90;;;;;;4954353;28;20032;-78
2022/06/17 02:47:06;;;;;;;9.65;6.13;;;13.10;99.90;;;;;;4955126;28;20042;-77
2022/06/17 02:49:35;;;;;;;11.23;5.72;;;13.10;99.90;;;;;;4933820;29;20679;-78
2022/06/17 02:52:06;;;;;;;8.52;5.63;;;13.10;99.90;;;;;;4943475;29;20046;-78
2022/06/17 02:55:05;;;;;;;10.57;5.75;;;13.00;99.90;;;;;;4932118;29;20051;-78
2022/06/17 02:57:31;;;;;;;9.73;5.57;;;13.00;99.90;;;;;;4933902;28;20420;-78
2022/06/17 03:00:06;;;;;;;10.98;5.75;;;12.90;99.90;;;;;;4927723;29;20044;-77
2022/06/17 03:02:36;;;;;;;8.75;5.47;;;12.80;99.90;;;;;;4932852;29;20130;-76
2022/06/17 03:05:05;;;;;;;9.90;5.20;;;12.90;99.90;;;;;;4911199;29;20071;-77
2022/06/17 03:07:31;;;;;;;10.82;5.22;;;12.80;99.90;;;;;;4948049;28;20036;-78
2022/06/17 03:09:57;;;;;;;12.77;6.30;;;12.70;99.90;;;;;;4939836;29;20062;-80
2022/06/17 03:12:26;;;;;;;10.35;5.05;;;12.80;99.90;;;;;;4930855;29;20404;-79
2022/06/17 03:15:11;;;;;;;9.38;6.07;;;12.90;99.90;;;;;;4923729;29;20040;-80
2022/06/17 03:17:41;;;;;;;10.70;5.55;;;12.80;99.90;;;;;;4928615;28;20131;-79
2022/06/17 03:20:11;;;;;;;11.35;6.10;;;12.90;99.90;;;;;;4952575;28;20055;-79
2022/06/17 03:22:37;;;;;;;12.40;5.80;;;13.00;99.90;;;;;;4952365;28;20051;-79
2022/06/17 03:25:24;;;;;;;9.45;5.68;;;13.10;99.90;;;;;;4943835;29;20071;-79
2022/06/17 03:27:55;;;;;;;9.70;5.95;;;13.10;99.90;;;;;;4919233;29;20043;-79
2022/06/17 03:30:28;;;;;;;11.38;6.68;;;13.20;99.90;;;;;;4929565;29;20055;-79
2022/06/17 03:33:20;;;;;;;10.10;6.40;;;13.20;99.90;;;;;;4947452;29;20505;-77
2022/06/17 03:35:47;;;;;;;;;;;13.30;99.90;;;;;;4937599;28;20048;-77
2022/06/17 03:38:31;;;;;;;11.85;6.20;;;13.30;99.90;;;;;;4952087;28;19926;-78
2022/06/17 03:41:12;;;;;;;12.10;6.28;;;13.40;99.90;;;;;;4948248;29;20114;-78
2022/06/17 03:43:44;;;;;;;10.35;6.30;;;13.40;99.90;;;;;;4941758;29;20508;-78
2022/06/17 03:46:10;;;;;;;10.88;6.75;;;13.40;99.90;;;;;;4948522;28;20052;-78
2022/06/17 03:48:58;;;;;;;12.15;6.57;;;13.40;99.90;;;;;;4922945;29;20042;-77
2022/06/17 03:51:25;;;;;;;11.85;5.97;;;13.40;99.90;;;;;;4945410;29;20162;-78
2022/06/17 03:53:52;;;;;;;11.43;6.57;;;13.40;99.90;;;;;;4932114;29;20059;-77
2022/06/17 03:56:30;;;;;;;9.57;6.03;;;13.50;99.90;;;;;;4922520;29;20496;-77
2022/06/17 03:59:00;;;;;;;11.00;6.25;;;13.50;99.90;;;;;;4942414;29;20498;-76
2022/06/17 04:01:56;;;;;;;10.60;6.55;;;13.60;99.90;;;;;;4930995;29;20393;-77
2022/06/17 04:04:26;;;;;;;11.20;5.43;;;13.60;99.90;;;;;;4945140;28;20567;-78
2022/06/17 04:06:55;;;;;;;11.90;6.47;;;13.70;99.90;;;;;;4934090;29;20105;-76
2022/06/17 04:09:29;;;;;;;12.85;5.53;;;13.80;99.90;;;;;;4945973;28;20127;-76
2022/06/17 04:12:00;;;;;;;11.20;5.15;;;13.90;99.90;;;;;;4943324;29;20050;-76
2022/06/17 04:14:28;;;;;;;;;;;13.90;99.90;;;;;;4950402;28;20808;-77
2022/06/17 04:17:14;;;;;;;11.02;5.07;;;13.90;99.90;;;;;;4944080;29;19923;-77
2022/06/17 04:19:42;;;;;;;13.45;5.57;;;14.00;99.90;;;;;;4929421;29;20055;-77
2022/06/17 04:22:21;;;;;;;10.90;5.38;;;14.10;99.90;;;;;;4949898;28;20047;-78
2022/06/17 04:24:51;;;;;;;10.77;6.30;;;14.10;99.90;;;;;;4930258;29;20058;-75
2022/06/17 04:27:19;;;;;;;11.43;5.95;;;14.40;99.90;;;;;;4936307;29;20103;-76
2022/06/17 04:29:50;;;;;;;10.55;5.78;;;14.30;99.90;;;;;;4932368;29;20153;-76
2022/06/17 04:32:21;;;;;;;11.07;5.80;;;14.40;99.90;;;;;;4945853;29;20051;-76
2022/06/17 04:34:46;;;;;;;9.30;5.97;;;14.50;99.90;;;;;;4932699;29;20051;-75
2022/06/17 04:37:20;;;;;;;13.93;6.88;;;14.50;99.90;;;;;;4946148;28;20442;-74
2022/06/17 04:39:53;;;;;;;10.18;5.72;;;14.70;99.90;;;;;;4929996;29;20050;-76
2022/06/17 04:42:25;;;;;;;12.38;6.15;;;14.80;99.90;;;;;;4925022;29;20043;-75
2022/06/17 04:44:51;;;;;;;9.15;5.65;;;15.20;99.90;;;;;;4941560;29;20140;-76
2022/06/17 04:47:20;;;;;;;13.27;5.72;;;15.20;99.90;;;;;;4935863;29;20216;-76
2022/06/17 04:49:56;;;;;;;9.82;5.97;;;15.10;99.90;;;;;;4925964;29;20043;-76
2022/06/17 04:52:30;;;;;;;10.02;5.80;;;15.20;99.90;;;;;;4938611;29;20066;-75
2022/06/17 04:54:58;;;;;;;10.52;6.55;;;15.10;99.90;;;;;;4939037;29;20048;-75
2022/06/17 04:57:25;;;;;;;9.48;5.90;;;15.10;99.90;;;;;;4942363;29;20047;-76
2022/06/17 04:59:51;;;;;;;11.13;6.07;;;15.20;99.90;;;;;;4946080;28;20047;-75
2022/06/17 05:02:23;;;;;;;11.30;5.90;;;15.10;99.90;;;;;;4930781;29;20405;-75
2022/06/17 05:04:53;;;;;;;10.93;6.07;;;15.20;99.90;;;;;;4913098;29;20616;-76
2022/06/17 05:07:19;;;;;;;9.57;6.05;;;15.20;99.90;;;;;;4936561;29;20513;-76
2022/06/17 05:09:52;;;;;;;10.63;6.00;;;15.20;99.90;;;;;;4927636;29;20075;-75
2022/06/17 05:12:29;;;;;;;9.48;6.40;;;15.30;99.90;;;;;;4934609;29;20054;-75
2022/06/17 05:15:04;;;;;;;11.80;6.32;;;15.30;99.90;;;;;;4933806;29;20043;-75
2022/06/17 05:17:30;;;;;;;10.38;6.38;;;15.30;99.90;;;;;;4940724;28;20067;-74
2022/06/17 05:19:56;;;;;;;12.93;6.78;;;15.30;99.90;;;;;;4931297;28;20051;-74
2022/06/17 05:22:27;;;;;;;12.25;6.28;;;15.30;99.90;;;;;;4929634;29;20375;-75
2022/06/17 05:24:54;;;;;;;10.48;6.35;;;15.30;99.90;;;;;;4933534;29;20500;-76
2022/06/17 05:27:19;;;;;;;12.75;6.68;;;15.30;99.90;;;;;;4935346;29;20826;-74
2022/06/17 05:29:45;;;;;;;9.82;6.30;;;15.40;99.90;;;;;;4928529;29;20136;-75
2022/06/17 05:32:18;;;;;;;14.82;6.57;;;15.30;99.90;;;;;;4922557;29;20165;-75
2022/06/17 05:34:45;;;;;;;14.65;7.55;;;15.40;99.90;;;;;;4924944;29;20174;-75
2022/06/17 05:37:11;;;;;;;9.63;5.90;;;15.40;99.90;;;;;;4927411;29;20039;-75
2022/06/17 05:39:36;;;;;;;13.13;6.88;;;15.40;99.90;;;;;;4942054;28;20055;-75
2022/06/17 05:42:02;;;;;;;14.73;6.45;;;15.50;99.90;;;;;;4943521;28;20032;-74
2022/06/17 05:44:28;;;;;;;12.88;7.28;;;15.60;99.90;;;;;;4945025;28;20118;-74
2022/06/17 05:46:54;;;;;;;9.70;6.13;;;15.60;99.90;;;;;;4941673;29;20035;-76
2022/06/17 05:49:20;;;;;;;10.93;6.22;;;15.70;99.90;;;;;;4930167;28;20044;-75
2022/06/17 05:51:49;;;;;;;12.55;6.85;;;15.70;99.90;;;;;;4945482;28;20091;-75
2022/06/17 05:54:15;;;;;;;12.07;7.10;;;15.80;99.90;;;;;;4926352;29;20520;-74
2022/06/17 05:56:40;;;;;;;10.35;7.03;;;15.90;99.90;;;;;;4922365;29;20080;-75
2022/06/17 05:59:06;;;;;;;13.32;7.18;;;16.00;99.90;;;;;;4930304;29;20126;-77
2022/06/17 06:01:32;;;;;;;13.85;7.07;;;16.00;99.90;;;;;;4935943;28;20070;-75
2022/06/17 06:03:58;;;;;;;9.77;7.18;;;16.10;99.90;;;;;;4927196;28;20047;-75
2022/06/17 06:06:24;;;;;;;10.70;6.95;;;16.10;99.90;;;;;;4924981;28;20097;-74
2022/06/17 06:08:50;;;;;;;16.13;7.07;;;16.20;99.90;;;;;;4941647;29;20134;-75
2022/06/17 06:11:16;;;;;;;9.63;7.07;;;16.20;99.90;;;;;;4936860;29;20584;-75
2022/06/17 06:13:41;;;;;;;10.02;7.00;;;16.30;99.90;;;;;;4941892;28;20075;-75
2022/06/17 06:16:08;;;;;;;10.85;7.15;;;16.30;99.90;;;;;;4922507;29;20039;-75
2022/06/17 06:18:37;;;;;;;10.90;7.35;;;16.40;99.90;;;;;;4928010;29;20051;-75
2022/06/17 06:21:06;;;;;;;13.18;7.68;;;16.40;99.90;;;;;;4920850;29;20104;-76
2022/06/17 06:23:37;;;;;;;9.50;7.03;;;16.50;99.90;;;;;;4942124;29;20532;-77
2022/06/17 06:26:04;;;;;;;11.10;7.63;;;16.50;99.90;;;;;;4921691;29;20082;-74
2022/06/17 06:28:30;;;;;;;11.90;7.75;;;16.60;99.90;;;;;;4929005;28;20115;-74
2022/06/17 06:31:31;;;;;;;10.82;7.57;;;16.70;99.90;;;;;;4941569;28;20047;-74
2022/06/17 06:33:56;;;;;;;10.80;6.85;;;16.80;99.90;;;;;;4930954;29;20066;-76
2022/06/17 06:36:23;;;;;;;13.52;6.90;;;16.90;99.90;;;;;;4945136;28;20047;-75
2022/06/17 06:38:48;;;;;;;10.32;6.53;;;17.10;99.90;;;;;;4946698;28;20129;-75
2022/06/17 06:41:15;;;;;;;12.10;8.10;;;17.30;99.90;;;;;;4943264;28;20051;-75
2022/06/17 06:43:41;;;;;;;10.70;7.07;;;17.40;99.90;;;;;;4942953;29;20054;-75
2022/06/17 06:46:10;;;;;;;10.57;6.55;;;17.60;99.90;;;;;;4927957;29;20055;-74
2022/06/17 06:48:36;;;;;;;13.02;7.13;;;17.70;99.90;;;;;;4945809;29;20787;-74
2022/06/17 06:51:02;;;;;;;11.20;7.15;;;17.90;99.90;;;;;;4943403;28;21410;-75
2022/06/17 06:53:28;;;;;;;11.85;7.18;;;18.00;99.90;;;;;;4923671;29;20417;-74
2022/06/17 06:55:53;;;;;;;13.95;7.63;;;18.10;99.90;;;;;;4914775;29;20043;-75
2022/06/17 06:58:22;;;;;;;10.65;6.60;;;18.20;99.90;;;;;;4943476;28;20050;-73
2022/06/17 07:00:51;;;;;;;13.10;7.68;;;18.30;99.90;;;;;;4945709;28;20129;-74
2022/06/17 07:03:18;;;;;;;11.88;7.68;;;18.40;99.90;;;;;;4945097;28;20047;-75
2022/06/17 07:05:53;;;;;;;11.75;7.07;;;18.50;99.90;;;;;;4930125;29;20043;-74
2022/06/17 07:08:21;;;;;;;11.13;7.15;;;18.60;99.90;;;;;;4948710;29;20039;-74
2022/06/17 07:10:48;;;;;;;13.15;6.82;;;18.60;99.90;;;;;;4928031;29;20043;-76
2022/06/17 07:13:14;;;;;;;13.30;7.20;;;18.60;99.90;;;;;;4931300;29;20446;-74
2022/06/17 07:15:42;;;;;;;12.55;6.78;;;18.60;99.90;;;;;;4933189;29;20046;-75
2022/06/17 07:18:13;;;;;;;12.50;7.97;;;18.60;99.90;;;;;;4946361;29;20075;-76
2022/06/17 07:20:42;;;;;;;11.95;6.68;;;18.60;99.90;;;;;;4917398;29;20110;-74
2022/06/17 07:23:20;;;;;;;12.13;7.00;;;18.60;99.90;;;;;;4924143;29;20039;-75
2022/06/17 07:25:46;;;;;;;13.52;6.95;;;18.70;99.90;;;;;;4929227;29;20047;-74
2022/06/17 07:28:18;;;;;;;10.32;6.07;;;18.80;99.90;;;;;;4930459;29;20079;-75
2022/06/17 07:30:45;;;;;;;11.57;7.32;;;19.00;99.90;;;;;;4932949;29;20051;-76
2022/06/17 07:33:12;;;;;;;9.65;6.20;;;19.20;99.90;;;;;;4933865;29;20043;-74
2022/06/17 07:35:40;;;;;;;10.07;6.53;;;19.30;99.90;;;;;;4925503;29;20639;-73
2022/06/17 07:40:58;;;;;;;12.57;6.35;;;19.60;99.90;;;;;;4950507;28;20515;-75
2022/06/17 07:43:24;;;;;;;11.27;7.32;;;19.70;99.90;;;;;;4916997;29;20041;-78
2022/06/17 07:45:50;;;;;;;10.77;6.50;;;19.80;99.90;;;;;;4912301;29;20055;-76
2022/06/17 07:48:18;;;;;;;10.95;7.30;;;19.90;99.90;;;;;;4947190;29;20031;-78
2022/06/17 07:50:44;;;;;;;12.30;6.93;;;20.00;99.90;;;;;;4926758;29;20489;-75
2022/06/17 07:53:10;;;;;;;10.63;7.22;;;20.10;99.90;;;;;;4935754;29;20035;-75
2022/06/17 07:55:37;;;;;;;12.18;6.47;;;20.10;99.90;;;;;;4934543;29;20057;-74
2022/06/17 07:58:04;;;;;;;14.15;6.75;;;20.30;99.90;;;;;;4951992;28;20078;-73
2022/06/17 08:00:34;;;;;;;11.35;6.75;;;20.30;99.90;;;;;;4945301;29;20043;-74
2022/06/17 08:03:01;;;;;;;11.45;6.13;;;20.40;99.90;;;;;;4933696;29;20090;-74
2022/06/17 08:05:27;;;;;;;10.68;5.68;;;20.50;99.90;;;;;;4934737;29;20055;-75
2022/06/17 08:07:54;;;;;;;9.93;5.88;;;20.60;99.90;;;;;;4932197;29;20575;-75
2022/06/17 08:10:23;;;;;;;14.50;6.22;;;20.70;99.90;;;;;;4952327;28;20456;-74
2022/06/17 08:12:49;;;;;;;10.73;6.45;;;20.80;99.90;;;;;;4928740;29;20051;-75
2022/06/17 08:15:15;;;;;;;8.45;5.47;;;20.90;99.90;;;;;;4931909;29;20382;-75
2022/06/17 08:17:42;;;;;;;9.20;6.35;;;21.30;99.90;;;;;;4943815;29;20130;-73
2022/06/17 08:20:19;;;;;;;8.23;5.68;;;21.50;99.90;;;;;;4928606;29;20390;-74
2022/06/17 08:22:45;;;;;;;12.20;5.72;;;21.90;99.90;;;;;;4944525;28;20055;-75
2022/06/17 08:25:11;;;;;;;11.98;5.68;;;22.20;99.90;;;;;;4932621;29;20078;-73
2022/06/17 08:27:45;;;;;;;11.80;6.03;;;22.40;99.90;;;;;;4946289;29;20070;-74
2022/06/17 08:30:12;;;;;;;10.90;5.70;;;22.50;99.90;;;;;;4947170;28;20055;-77
2022/06/17 08:32:48;;;;;;;10.98;5.78;;;22.60;99.90;;;;;;4935445;28;20050;-75
2022/06/17 08:35:17;;;;;;;9.25;5.50;;;22.50;99.90;;;;;;4944400;29;20051;-75
2022/06/17 08:37:44;;;;;;;9.77;5.07;;;22.50;99.90;;;;;;4930387;29;20378;-74
2022/06/17 08:40:39;;;;;;;9.45;5.32;;;22.40;99.90;;;;;;4948749;28;20039;-75
2022/06/17 08:43:26;;;;;;;7.60;4.72;;;22.30;99.90;;;;;;4927012;29;20387;-74
2022/06/17 08:46:06;;;;;;;9.52;4.75;;;22.20;99.90;;;;;;4936884;29;20079;-73
2022/06/17 08:48:41;;;;;;;6.53;4.22;;;22.10;99.90;;;;;;4915984;29;20109;-74
2022/06/17 08:51:24;;;;;;;8.50;4.28;;;22.10;99.90;;;;;;4925122;29;20667;-74
2022/06/17 08:54:12;;;;;;;7.57;4.13;;;22.00;99.90;;;;;;4950560;28;20664;-76
2022/06/17 08:56:56;;;;;;;8.15;4.50;;;22.00;99.90;;;;;;4947586;28;20048;-74
2022/06/17 08:59:39;;;;;;;8.57;4.30;;;22.00;99.90;;;;;;4932756;29;20058;-74
2022/06/17 09:02:40;;;;;;;7.65;4.07;;;22.00;99.90;;;;;;4929986;29;20043;-75
2022/06/17 09:05:17;;;;;;;8.85;4.18;;;22.00;99.90;;;;;;4906897;29;20062;-73
2022/06/17 09:08:03;;;;;;;8.98;4.40;;;22.00;99.90;;;;;;4941842;28;20060;-74
2022/06/17 09:10:47;;;;;;;8.85;4.28;;;22.10;99.90;;;;;;4929111;29;20076;-73
2022/06/17 09:13:49;;;;;;;7.72;4.03;;;22.10;99.90;;;;;;4940440;28;20066;-74
2022/06/17 09:16:20;;;;;;;8.60;4.63;;;22.10;99.90;;;;;;4926117;29;20073;-74
2022/06/17 09:18:47;;;;;;;;;;;22.20;99.90;;;;;;4913276;29;20106;-74
2022/06/17 09:21:24;;;;;;;9.02;4.50;;;22.20;99.90;;;;;;4943287;28;20531;-73
2022/06/17 09:23:50;;;;;;;11.00;5.25;;;22.40;99.90;;;;;;4946088;28;20981;-73
2022/06/17 09:26:24;;;;;;;8.55;5.50;;;22.50;99.90;;;;;;4945533;28;20057;-73
2022/06/17 09:29:07;;;;;;;11.43;5.45;;;22.60;99.90;;;;;;4909069;29;20316;-74
2022/06/17 09:31:59;;;;;;;9.15;4.80;;;22.70;99.90;;;;;;4924102;29;20047;-73
2022/06/17 09:34:40;;;;;;;9.88;4.53;;;22.90;99.90;;;;;;4923831;29;20621;-74
2022/06/17 09:37:24;;;;;;;8.85;4.45;;;23.20;99.90;;;;;;4942754;29;20547;-74
2022/06/17 09:39:58;;;;;;;8.43;4.90;;;23.40;99.90;;;;;;4914350;29;20043;-74
2022/06/17 09:42:33;;;;;;;9.40;4.10;;;23.60;99.90;;;;;;4939235;28;20528;-75
2022/06/17 09:45:14;;;;;;;11.65;4.70;;;23.70;99.90;;;;;;4924920;29;20555;-74
2022/06/17 09:47:51;;;;;;;8.35;3.92;;;23.80;99.90;;;;;;4928190;29;20054;-73
2022/06/17 09:50:30;;;;;;;8.38;3.97;;;23.80;99.90;;;;;;4944777;28;20611;-75
2022/06/17 09:53:08;;;;;;;8.60;4.13;;;23.70;99.90;;;;;;4929222;29;20130;-77
2022/06/17 09:55:45;;;;;;;9.13;3.85;;;23.50;99.90;;;;;;4925371;29;20126;-77
2022/06/17 09:58:45;;;;;;;8.95;3.72;;;23.50;99.90;;;;;;4930880;29;20043;-74
2022/06/17 10:01:11;;;;;;;10.63;3.90;;;23.50;99.90;;;;;;4931832;28;20070;-74
2022/06/17 10:03:38;;;;;;;10.63;4.90;;;23.50;99.90;;;;;;4927017;29;20094;-75
2022/06/17 10:06:23;;;;;;;7.18;3.45;;;23.50;99.90;;;;;;4928228;28;20055;-75
2022/06/17 10:09:16;;;;;;;7.50;3.63;;;23.40;99.90;;;;;;4927570;29;20163;-74
2022/06/17 10:11:45;;;;;;;7.28;3.65;;;23.40;99.90;;;;;;4925876;29;20098;-74
2022/06/17 10:14:26;;;;;;;9.93;4.90;;;23.30;99.90;;;;;;4942994;28;20043;-74
2022/06/17 10:20:27;;;;;;;7.88;3.65;;;23.20;99.90;;;;;;4938245;29;20051;-77
2022/06/17 10:23:32;;;;;;;8.65;4.35;;;23.20;99.90;;;;;;4946915;28;20054;-77
2022/06/17 10:26:19;;;;;;;9.88;4.80;;;23.20;99.90;;;;;;4940973;28;20106;-75
2022/06/17 10:29:03;;;;;;;9.27;4.47;;;23.20;99.90;;;;;;4931588;29;20110;-76
2022/06/17 10:31:36;;;;;;;9.18;4.45;;;23.30;99.90;;;;;;4953358;29;20498;-75
2022/06/17 10:34:11;;;;;;;13.13;4.50;;;23.40;99.90;;;;;;4969156;28;20070;-72
2022/06/17 10:36:37;;;;;;;9.90;4.13;;;23.60;99.90;;;;;;4942669;29;20048;-73
2022/06/17 10:39:05;;;;;;;11.75;4.30;;;23.70;99.90;;;;;;4931737;29;20031;-73
2022/06/17 10:41:32;;;;;;;10.98;4.82;;;23.80;99.90;;;;;;4937797;28;20478;-75
2022/06/17 10:44:00;;;;;;;7.97;4.78;;;23.90;99.90;;;;;;4943731;28;20044;-75
2022/06/17 10:46:32;;;;;;;9.30;5.30;;;24.10;99.90;;;;;;4935709;28;20079;-73
2022/06/17 10:49:36;;;;;;;9.40;5.05;;;24.20;99.90;;;;;;4947303;28;20082;-73
2022/06/17 10:52:05;;;;;;;11.68;6.00;;;24.20;99.90;;;;;;4939677;28;20501;-73
2022/06/17 10:54:34;;;;;;;9.93;5.78;;;24.30;99.90;;;;;;4938925;28;20137;-73
2022/06/17 10:57:21;;;;;;;10.50;6.38;;;24.50;99.90;;;;;;4936272;28;20047;-76
2022/06/17 10:59:47;;;;;;;10.63;6.30;;;24.60;99.90;;;;;;4922856;29;20552;-73
2022/06/17 11:02:24;;;;;;;12.75;6.32;;;24.80;99.90;;;;;;4921182;29;20156;-73
2022/06/17 11:04:54;;;;;;;10.43;5.93;;;24.80;99.90;;;;;;4932290;28;20129;-72
2022/06/17 11:07:30;;;;;;;8.48;5.05;;;24.90;99.90;;;;;;4942455;28;20051;-72
2022/06/17 11:10:00;;;;;;;11.98;6.45;;;24.90;99.90;;;;;;4925176;29;20089;-72
2022/06/17 11:12:37;;;;;;;9.52;5.53;;;25.00;99.90;;;;;;4921974;29;20594;-74
2022/06/17 11:15:18;;;;;;;11.93;5.38;;;25.10;99.90;;;;;;4919885;29;20066;-72
2022/06/17 11:17:48;;;;;;;9.85;5.07;;;25.20;99.90;;;;;;4935223;28;20043;-72
2022/06/17 11:20:24;;;;;;;10.50;6.35;;;25.30;99.90;;;;;;4923732;29;20047;-71
2022/06/17 11:23:00;;;;;;;8.35;5.60;;;25.40;99.90;;;;;;4922209;28;20070;-71
2022/06/17 11:25:37;;;;;;;11.20;5.53;;;25.40;99.90;;;;;;4926132;29;20134;-73
2022/06/17 11:28:12;;;;;;;9.07;4.90;;;25.30;99.90;;;;;;4917547;29;20060;-73
2022/06/17 11:30:53;;;;;;;10.52;4.47;;;25.30;99.90;;;;;;4917817;29;20709;-72
2022/06/17 11:33:32;;;;;;;8.82;4.20;;;25.60;99.90;;;;;;4941021;28;20136;-72
2022/06/17 11:36:09;;;;;;;9.40;5.15;;;25.70;99.90;;;;;;4924310;29;20055;-73
2022/06/17 11:38:35;;;;;;;12.13;4.68;;;26.10;99.90;;;;;;4938644;28;20056;-72
2022/06/17 11:41:02;;;;;;;13.73;4.93;;;26.60;99.90;;;;;;4919626;29;20055;-72
2022/06/17 11:43:31;;;;;;;9.65;5.32;;;27.20;99.90;;;;;;4918944;29;20505;-72
2022/06/17 11:46:16;;;;;;;11.40;4.45;;;27.40;96.80;;;;;;4922757;29;20135;-72
2022/06/17 11:49:00;;;;;;;8.98;3.90;;;27.30;96.50;;;;;;4923982;29;20059;-73
2022/06/17 11:51:32;;;;;;;9.50;4.15;;;27.30;97.30;;;;;;4921341;29;20130;-74
2022/06/17 11:54:08;;;;;;;9.70;4.47;;;27.40;97.90;;;;;;4921262;29;20047;-72
2022/06/17 11:56:39;;;;;;;7.90;4.45;;;27.40;94.20;;;;;;4942036;28;20126;-72
2022/06/17 11:59:15;;;;;;;9.32;4.22;;;27.50;95.30;;;;;;4923951;29;20043;-72
2022/06/17 12:01:47;;;;;;;9.05;4.72;;;27.40;94.50;;;;;;4938131;28;20071;-72
2022/06/17 12:04:33;;;;;;;9.57;4.57;;;27.40;95.10;;;;;;4940503;28;20164;-73
2022/06/17 12:06:59;;;;;;;9.75;4.63;;;27.50;93.10;;;;;;4915132;29;20055;-70
2022/06/17 12:09:25;;;;;;;9.98;4.15;;;27.60;92.50;;;;;;4938450;28;20189;-71
2022/06/17 12:11:54;;;;;;;7.57;3.65;;;27.80;94.00;;;;;;4934169;29;20728;-70
2022/06/17 12:14:29;;;;;;;7.28;3.78;;;27.90;94.00;;;;;;4916382;29;20091;-71
2022/06/17 12:16:57;;;;;;;6.95;3.95;;;28.00;92.60;;;;;;4917691;29;20070;-71
2022/06/17 12:19:22;;;;;;;7.15;4.07;;;28.10;92.20;;;;;;4937445;28;20078;-71
2022/06/17 12:22:14;;;;;;;7.75;3.60;;;28.10;92.80;;;;;;4919241;29;20046;-71
2022/06/17 12:25:11;;;;;;;10.25;3.50;;;28.10;91.40;;;;;;4918036;29;20602;-71
2022/06/17 12:28:03;;;;;;;9.98;3.83;;;28.30;92.70;;;;;;4916247;29;20059;-71
2022/06/17 12:30:48;;;;;;;6.85;3.10;;;28.40;90.80;;;;;;4916946;29;20063;-72
2022/06/17 12:33:40;;;;;;;7.90;2.85;;;28.40;88.50;;;;;;4940595;28;20168;-72
2022/06/17 12:36:19;;;;;;;7.43;2.70;;;28.30;90.10;;;;;;4936152;28;20059;-73
2022/06/17 12:38:56;;;;;;;8.18;3.03;;;28.30;87.50;;;;;;4922168;29;20054;-71
2022/06/17 12:41:46;;;;;;;5.30;2.35;;;28.10;84.80;;;;;;4943286;28;20044;-73
2022/06/17 12:44:20;;;;;;;6.07;2.33;;;27.90;83.00;;;;;;4928090;29;20498;-73
2022/06/17 12:47:08;;;;;;;6.25;2.75;;;27.70;83.60;;;;;;4925896;29;20207;-71
2022/06/17 12:55:26;;;;;;;8.80;2.47;;;27.90;81.90;;;;;;4918001;29;20047;-72
2022/06/17 12:58:26;;;;;;;7.28;2.83;;;27.90;82.60;;;;;;4916885;29;20059;-72
2022/06/17 13:00:58;;;;;;;6.30;2.73;;;28.00;83.10;;;;;;4922300;29;20051;-72
2022/06/17 13:03:42;;;;;;;7.07;2.67;;;27.90;83.30;;;;;;4918479;29;20059;-72
2022/06/17 13:06:21;;;;;;;8.23;2.85;;;27.70;83.40;;;;;;4920561;29;20058;-72
2022/06/17 13:08:53;;;;;;;6.43;2.38;;;27.60;80.50;;;;;;4933037;28;20438;-72
2022/06/17 13:11:37;;;;;;;6.38;2.40;;;27.40;81.00;;;;;;4920160;29;20518;-71
2022/06/17 13:14:31;;;;;;;6.70;2.72;;;27.30;81.60;;;;;;4935907;28;20504;-72
2022/06/17 13:17:04;;;;;;;7.85;3.15;;;27.30;83.50;;;;;;4924085;29;20046;-72
2022/06/17 13:19:45;;;;;;;8.93;2.72;;;27.20;83.50;;;;;;4922659;29;20058;-70
2022/06/17 13:22:14;;;;;;;7.63;2.75;;;27.10;81.00;;;;;;4937135;29;20028;-72
2022/06/17 13:24:56;;;;;;;6.93;2.90;;;27.00;82.80;;;;;;4938120;29;20043;-72